Time;durP1;ratioP1;P1;durP2;ratioP2;P2;SDS_P1;SDS_P2;PMS_P1;PMS_P2;Temp;Humidity;BMP_temperature;BMP_pressure;BME280_temperature;BME280_humidity;BME280_pressure;Samples;Min_cycle;Max_cycle;Signal;HPM_P1;HPM_P2
2022/08/25 00:03:24;;;;;;;7.93;1.90;;;;;;;24.61;29.63;100234.53;31669434;27;20048;-69
2022/08/25 00:18:27;;;;;;;6.75;2.10;;;;;;;24.50;30.22;100231.84;31666435;27;20048;-71
2022/08/25 00:33:32;;;;;;;16.83;3.00;;;;;;;24.38;30.72;100238.69;31673762;27;20048;-70
2022/08/25 00:48:35;;;;;;;6.28;1.70;;;;;;;24.25;31.03;100257.91;31682275;27;20738;-70
2022/08/25 01:03:38;;;;;;;16.83;2.60;;;;;;;24.09;31.45;100257.41;31670931;27;20051;-70
2022/08/25 01:18:48;;;;;;;3.77;1.60;;;;;;;23.91;32.01;100240.56;31660253;27;20505;-70
2022/08/25 01:33:50;;;;;;;9.68;2.05;;;;;;;23.64;32.84;100245.63;31664020;27;20047;-70
2022/08/25 01:48:53;;;;;;;14.43;2.60;;;;;;;23.55;33.23;100247.91;31659311;27;20051;-70
2022/08/25 02:03:55;;;;;;;10.73;2.10;;;;;;;23.42;34.07;100240.81;31658675;27;20106;-70
2022/08/25 02:18:58;;;;;;;7.05;2.05;;;;;;;23.38;34.31;100245.13;31650934;27;20397;-70
2022/08/25 02:34:01;;;;;;;7.37;2.00;;;;;;;23.37;34.44;100255.44;31668139;27;20052;-70
2022/08/25 02:49:03;;;;;;;;;;;;;;;23.33;35.01;100251.41;31665607;27;20046;-70
2022/08/25 03:04:06;;;;;;;8.68;3.10;;;;;;;23.23;34.70;100250.91;31641182;27;19924;-71
2022/08/25 03:19:07;;;;;;;12.37;2.40;;;;;;;23.23;35.46;100273.03;31658675;27;20063;-71
2022/08/25 03:34:17;;;;;;;4.70;2.20;;;;;;;23.29;35.30;100293.22;31652996;28;20071;-70
2022/08/25 03:49:22;;;;;;;9.98;2.58;;;;;;;23.43;35.09;100286.66;31664567;28;20384;-70
2022/08/25 04:04:24;;;;;;;4.57;2.38;;;;;;;23.73;34.63;100291.75;31666694;28;20048;-72
2022/08/25 04:19:26;;;;;;;6.37;2.90;;;;;;;23.99;34.42;100286.69;31662130;28;20056;-71
2022/08/25 04:34:28;;;;;;;12.13;2.33;;;;;;;24.44;34.15;100270.69;31659348;27;20040;-71
2022/08/25 04:49:32;;;;;;;9.20;2.10;;;;;;;24.93;33.08;100275.78;31659289;27;20491;-72
2022/08/25 05:04:35;;;;;;;6.43;2.20;;;;;;;25.37;32.40;100275.50;31673676;27;20512;-69
2022/08/25 05:19:37;;;;;;;7.05;1.95;;;;;;;26.04;31.33;100274.16;31668175;27;20488;-70
2022/08/25 05:34:39;;;;;;;4.88;1.70;;;;;;;26.77;30.16;100266.50;31672530;27;20055;-70
2022/08/25 05:49:41;;;;;;;3.25;1.55;;;;;;;27.20;28.76;100248.94;31687855;27;20071;-71
2022/08/25 06:04:43;;;;;;;6.97;1.48;;;;;;;27.66;28.74;100230.22;31668800;27;20059;-72
2022/08/25 06:19:45;;;;;;;5.88;2.17;;;;;;;28.23;27.56;100225.13;31612256;27;20071;-74
2022/08/25 06:34:47;;;;;;;2.28;1.15;;;;;;;28.77;27.62;100216.09;31417002;28;20064;-72
2022/08/25 06:49:49;;;;;;;7.07;1.58;;;;;;;29.44;26.41;100215.28;31407707;28;20446;-72
2022/08/25 07:04:52;;;;;;;7.22;1.63;;;;;;;29.61;26.35;100212.03;31419146;28;20046;-72
2022/08/25 07:19:54;;;;;;;8.80;1.85;;;;;;;30.04;25.55;100179.88;31410480;28;20055;-79
2022/08/25 07:35:14;;;;;;;5.63;1.38;;;;;;;30.85;24.45;100148.41;31438309;28;20068;-79
2022/08/25 07:50:20;;;;;;;11.00;2.90;;;;;;;31.21;23.67;100145.44;31408477;28;20064;-79
2022/08/25 08:05:23;;;;;;;7.53;1.58;;;;;;;31.10;23.36;100154.22;31419251;28;20061;-71
2022/08/25 08:20:27;;;;;;;4.00;1.30;;;;;;;31.36;23.14;100125.81;31446971;28;20052;-72
2022/08/25 08:35:29;;;;;;;5.68;1.50;;;;;;;32.15;23.60;100130.06;31442220;28;20509;-72
2022/08/25 08:50:56;;;;;;;6.70;1.92;;;;;;;32.37;22.79;100079.97;31428970;28;20517;-72
2022/08/25 09:06:02;;;;;;;9.55;2.33;;;;;;;32.75;23.03;100071.31;31430203;28;20044;-73
2022/08/25 09:21:24;;;;;;;3.23;1.30;;;;;;;33.15;22.33;100057.09;31431395;28;20371;-79
2022/08/25 09:36:26;;;;;;;8.20;2.67;;;;;;;33.65;21.80;100059.75;31427149;28;20037;-71
2022/08/25 09:51:33;;;;;;;3.65;1.52;;;;;;;33.83;20.70;100024.63;31437841;28;20044;-78
2022/08/25 10:06:46;;;;;;;3.25;0.82;;;;;;;34.20;19.95;100023.38;31421935;28;20071;-73
2022/08/25 10:22:08;;;;;;;4.35;1.30;;;;;;;34.24;19.25;100010.94;31444608;28;20067;-72
2022/08/25 10:37:45;;;;;;;5.00;1.83;;;;;;;34.32;20.33;100011.56;31455024;28;20083;-72
2022/08/25 10:52:49;;;;;;;7.37;1.63;;;;;;;34.32;20.06;100005.94;31443551;28;20064;-74
2022/08/25 11:08:03;;;;;;;6.68;1.70;;;;;;;34.06;21.16;99991.28;31456302;28;20056;-73
2022/08/25 11:23:10;;;;;;;6.75;1.17;;;;;;;34.31;20.40;99987.53;31399143;28;20064;-73
2022/08/25 11:38:32;;;;;;;6.95;2.08;;;;;;;33.20;21.98;99977.34;31417415;28;20057;-81
2022/08/25 11:53:37;;;;;;;14.35;1.73;;;;;;;32.87;21.79;99963.44;31434445;28;20045;-77
2022/08/25 12:09:13;;;;;;;3.93;1.70;;;;;;;32.52;22.37;99961.91;31457964;28;20128;-78
2022/08/25 12:24:19;;;;;;;10.40;1.45;;;;;;;32.52;22.06;99928.19;31452683;28;20049;-76
2022/08/25 12:39:28;;;;;;;10.25;2.17;;;;;;;32.44;21.76;99944.34;31455837;28;20098;-77
2022/08/25 12:54:43;;;;;;;16.77;3.92;;;;;;;32.23;22.29;99938.38;31453074;28;20383;-78
2022/08/25 13:10:01;;;;;;;4.35;2.60;;;;;;;32.12;22.89;99931.88;31440573;28;20087;-76
2022/08/25 13:25:04;;;;;;;7.75;1.95;;;;;;;31.99;22.84;99940.56;31427248;28;20044;-83
2022/08/25 13:40:20;;;;;;;7.57;1.77;;;;;;;31.97;22.91;99925.63;31421200;28;20045;-76
2022/08/25 13:55:46;;;;;;;12.07;2.55;;;;;;;31.72;23.35;99911.56;31418101;28;20395;-73
2022/08/25 14:11:07;;;;;;;17.55;1.98;;;;;;;31.51;24.28;99921.00;31423429;28;20118;-74
2022/08/25 14:26:15;;;;;;;7.28;2.22;;;;;;;31.51;24.23;99921.00;31410893;28;20052;-79
2022/08/25 14:41:17;;;;;;;6.75;2.28;;;;;;;31.41;24.39;99905.38;31451408;28;20061;-82
2022/08/25 14:56:19;;;;;;;7.32;1.63;;;;;;;31.23;25.14;99907.28;31414830;28;20137;-80
2022/08/25 15:11:21;;;;;;;12.07;2.83;;;;;;;31.06;26.01;99887.53;31416351;28;20456;-76
2022/08/25 15:26:23;;;;;;;8.57;3.22;;;;;;;30.84;26.45;99884.25;31407178;28;20080;-72
2022/08/25 15:41:26;;;;;;;8.07;2.83;;;;;;;30.63;26.97;99892.16;31395331;28;20130;-73
2022/08/25 15:56:30;;;;;;;8.43;3.90;;;;;;;30.41;27.49;99895.72;31390507;28;20049;-74
2022/08/25 16:11:33;;;;;;;14.15;4.00;;;;;;;30.24;27.24;99906.72;31402406;28;20822;-74
2022/08/25 16:26:41;;;;;;;11.38;3.20;;;;;;;30.02;27.45;99886.56;31393210;28;20048;-75
2022/08/25 16:41:50;;;;;;;15.10;5.67;;;;;;;29.76;27.11;99906.47;31412208;28;20094;-73
2022/08/25 16:56:52;;;;;;;39.17;11.95;;;;;;;29.53;27.99;99909.94;31418410;28;20050;-78
2022/08/25 17:11:56;;;;;;;18.55;6.43;;;;;;;29.30;27.47;99916.75;31456241;28;20469;-75
2022/08/25 17:26:58;;;;;;;15.38;4.43;;;;;;;28.99;28.45;99907.50;31417159;28;20049;-72
2022/08/25 17:42:02;;;;;;;13.27;4.05;;;;;;;28.67;28.83;99891.81;31446045;28;20414;-73
2022/08/25 17:57:04;;;;;;;15.35;4.82;;;;;;;28.48;28.94;99894.13;31448206;28;20490;-73
2022/08/25 18:12:06;;;;;;;21.23;3.47;;;;;;;28.27;28.82;99873.88;31406816;28;20063;-72
2022/08/25 18:27:09;;;;;;;15.85;5.13;;;;;;;28.16;28.72;99870.03;31468424;28;20476;-73
2022/08/25 18:42:11;;;;;;;21.42;3.90;;;;;;;28.02;28.37;99865.84;31445540;28;20060;-73
2022/08/25 18:57:13;;;;;;;18.90;4.93;;;;;;;27.83;28.75;99859.72;31420482;28;20049;-72
2022/08/25 19:12:15;;;;;;;25.33;7.78;;;;;;;27.75;28.67;99853.31;31405961;28;20060;-73
2022/08/25 19:27:23;;;;;;;20.90;7.57;;;;;;;27.66;28.05;99840.59;31416056;28;20501;-73
2022/08/25 19:42:28;;;;;;;18.33;6.63;;;;;;;27.59;27.67;99829.38;31406212;28;20053;-74
2022/08/25 19:57:39;;;;;;;18.73;4.65;;;;;;;27.71;26.85;99825.78;31389825;28;20053;-72
2022/08/25 20:12:43;;;;;;;7.45;3.13;;;;;;;27.69;26.24;99847.13;31424755;28;20048;-73
2022/08/25 20:27:49;;;;;;;4.93;2.53;;;;;;;27.64;26.02;99850.78;31431057;28;20422;-71
2022/08/25 20:42:51;;;;;;;18.13;3.20;;;;;;;27.59;25.50;99854.47;31431975;28;20063;-71
2022/08/25 20:57:54;;;;;;;12.35;2.83;;;;;;;27.42;25.57;99849.22;31425969;28;20512;-71
2022/08/25 21:12:56;;;;;;;8.63;2.50;;;;;;;27.24;25.92;99861.31;31444944;28;20048;-72
2022/08/25 21:27:58;;;;;;;9.95;3.05;;;;;;;27.04;26.48;99874.63;31449183;28;20509;-73
2022/08/25 21:43:01;;;;;;;5.95;2.67;;;;;;;26.93;26.58;99868.53;31415695;28;20052;-73
2022/08/25 21:58:03;;;;;;;10.32;3.53;;;;;;;26.73;26.84;99851.16;31400061;28;20053;-72
2022/08/25 22:13:05;;;;;;;10.27;3.08;;;;;;;26.59;27.28;99843.38;31416153;28;20158;-71
2022/08/25 22:28:08;;;;;;;13.82;2.70;;;;;;;26.49;27.42;99840.25;31451390;28;20165;-71
2022/08/25 22:43:16;;;;;;;8.63;2.33;;;;;;;26.44;27.10;99838.34;31414174;28;20049;-72
2022/08/25 22:58:18;;;;;;;15.20;3.33;;;;;;;26.48;27.38;99849.88;31394063;28;20045;-71
2022/08/25 23:13:21;;;;;;;15.18;3.50;;;;;;;26.40;27.79;99833.09;31414955;28;20048;-70
2022/08/25 23:28:35;;;;;;;10.32;2.40;;;;;;;26.27;27.76;99829.50;31430917;28;20346;-70
2022/08/25 23:43:37;;;;;;;;;;;;;;;26.17;28.00;99827.16;31406054;28;20064;-73
2022/08/25 23:58:39;;;;;;;15.47;2.70;;;;;;;26.08;27.99;99810.88;31413009;28;20015;-71
